sensor_id;sensor_type;location;lat;lon;timestamp;P1;durP1;ratioP1;P2;durP2;ratioP2
23800;SDS011;12081;48.614;10.226;2023-04-25T00:00:37;4.67;;;2.93;;
23800;SDS011;12081;48.614;10.226;2023-04-25T00:03:22;3.63;;;3.20;;
23800;SDS011;12081;48.614;10.226;2023-04-25T00:06:08;3.67;;;3.03;;
23800;SDS011;12081;48.614;10.226;2023-04-25T00:08:53;6.17;;;3.40;;
23800;SDS011;12081;48.614;10.226;2023-04-25T00:11:37;4.67;;;2.77;;
23800;SDS011;12081;48.614;10.226;2023-04-25T00:14:21;4.97;;;3.33;;
23800;SDS011;12081;48.614;10.226;2023-04-25T00:17:06;5.33;;;2.70;;
23800;SDS011;12081;48.614;10.226;2023-04-25T00:19:51;4.97;;;3.27;;
23800;SDS011;12081;48.614;10.226;2023-04-25T00:22:35;2.90;;;2.53;;
23800;SDS011;12081;48.614;10.226;2023-04-25T00:25:21;4.13;;;2.70;;
23800;SDS011;12081;48.614;10.226;2023-04-25T00:28:05;6.33;;;2.90;;
23800;SDS011;12081;48.614;10.226;2023-04-25T00:30:49;4.83;;;2.57;;
23800;SDS011;12081;48.614;10.226;2023-04-25T00:33:34;5.17;;;2.73;;
23800;SDS011;12081;48.614;10.226;2023-04-25T00:36:18;4.97;;;3.10;;
23800;SDS011;12081;48.614;10.226;2023-04-25T00:39:02;6.07;;;2.80;;
23800;SDS011;12081;48.614;10.226;2023-04-25T00:41:47;3.97;;;2.70;;
23800;SDS011;12081;48.614;10.226;2023-04-25T00:44:33;4.27;;;2.97;;
23800;SDS011;12081;48.614;10.226;2023-04-25T00:47:18;3.93;;;2.67;;
23800;SDS011;12081;48.614;10.226;2023-04-25T00:50:03;4.67;;;2.47;;
23800;SDS011;12081;48.614;10.226;2023-04-25T00:52:48;3.43;;;2.40;;
23800;SDS011;12081;48.614;10.226;2023-04-25T00:55:32;3.60;;;2.73;;
23800;SDS011;12081;48.614;10.226;2023-04-25T00:58:18;5.37;;;3.27;;
23800;SDS011;12081;48.614;10.226;2023-04-25T01:01:04;4.33;;;3.20;;
23800;SDS011;12081;48.614;10.226;2023-04-25T01:03:50;3.60;;;3.07;;
23800;SDS011;12081;48.614;10.226;2023-04-25T01:06:34;3.53;;;2.40;;
23800;SDS011;12081;48.614;10.226;2023-04-25T01:09:18;3.60;;;2.70;;
23800;SDS011;12081;48.614;10.226;2023-04-25T01:12:03;6.07;;;3.10;;
23800;SDS011;12081;48.614;10.226;2023-04-25T01:14:47;3.63;;;2.67;;
23800;SDS011;12081;48.614;10.226;2023-04-25T01:17:33;4.33;;;3.33;;
23800;SDS011;12081;48.614;10.226;2023-04-25T01:20:19;3.30;;;2.43;;
23800;SDS011;12081;48.614;10.226;2023-04-25T01:23:06;6.17;;;3.30;;
23800;SDS011;12081;48.614;10.226;2023-04-25T01:25:51;4.83;;;2.93;;
23800;SDS011;12081;48.614;10.226;2023-04-25T01:28:36;4.93;;;2.97;;
23800;SDS011;12081;48.614;10.226;2023-04-25T01:31:21;3.27;;;2.73;;
23800;SDS011;12081;48.614;10.226;2023-04-25T01:34:06;3.73;;;2.90;;
23800;SDS011;12081;48.614;10.226;2023-04-25T01:36:51;4.90;;;2.87;;
23800;SDS011;12081;48.614;10.226;2023-04-25T01:39:36;3.90;;;2.93;;
23800;SDS011;12081;48.614;10.226;2023-04-25T01:42:20;4.10;;;2.93;;
23800;SDS011;12081;48.614;10.226;2023-04-25T01:45:04;4.77;;;2.63;;
23800;SDS011;12081;48.614;10.226;2023-04-25T01:47:50;4.10;;;2.57;;
23800;SDS011;12081;48.614;10.226;2023-04-25T01:50:34;4.43;;;3.00;;
23800;SDS011;12081;48.614;10.226;2023-04-25T01:53:18;7.03;;;2.67;;
23800;SDS011;12081;48.614;10.226;2023-04-25T01:56:03;4.20;;;2.77;;
23800;SDS011;12081;48.614;10.226;2023-04-25T01:58:48;3.33;;;2.50;;
23800;SDS011;12081;48.614;10.226;2023-04-25T02:01:32;3.83;;;2.50;;
23800;SDS011;12081;48.614;10.226;2023-04-25T02:04:16;3.73;;;2.40;;
23800;SDS011;12081;48.614;10.226;2023-04-25T02:07:00;3.10;;;2.63;;
23800;SDS011;12081;48.614;10.226;2023-04-25T02:09:45;4.80;;;2.53;;
23800;SDS011;12081;48.614;10.226;2023-04-25T02:12:30;3.80;;;2.37;;
23800;SDS011;12081;48.614;10.226;2023-04-25T02:15:14;6.00;;;3.10;;
23800;SDS011;12081;48.614;10.226;2023-04-25T02:17:58;7.53;;;3.17;;
23800;SDS011;12081;48.614;10.226;2023-04-25T02:20:46;3.77;;;3.00;;
23800;SDS011;12081;48.614;10.226;2023-04-25T02:23:30;3.83;;;2.80;;
23800;SDS011;12081;48.614;10.226;2023-04-25T02:26:15;3.77;;;2.70;;
23800;SDS011;12081;48.614;10.226;2023-04-25T02:28:59;4.17;;;2.67;;
23800;SDS011;12081;48.614;10.226;2023-04-25T02:31:44;3.17;;;2.57;;
23800;SDS011;12081;48.614;10.226;2023-04-25T02:34:28;4.43;;;2.73;;
23800;SDS011;12081;48.614;10.226;2023-04-25T02:37:13;4.23;;;2.80;;
23800;SDS011;12081;48.614;10.226;2023-04-25T02:39:57;4.37;;;2.97;;
23800;SDS011;12081;48.614;10.226;2023-04-25T02:45:26;3.63;;;2.60;;
23800;SDS011;12081;48.614;10.226;2023-04-25T02:48:10;3.03;;;2.53;;
23800;SDS011;12081;48.614;10.226;2023-04-25T02:50:54;3.50;;;2.80;;
23800;SDS011;12081;48.614;10.226;2023-04-25T02:53:38;3.83;;;2.50;;
23800;SDS011;12081;48.614;10.226;2023-04-25T02:56:22;3.13;;;2.80;;
23800;SDS011;12081;48.614;10.226;2023-04-25T02:59:07;4.03;;;3.00;;
23800;SDS011;12081;48.614;10.226;2023-04-25T03:01:51;3.00;;;2.70;;
23800;SDS011;12081;48.614;10.226;2023-04-25T03:04:35;4.50;;;2.53;;
23800;SDS011;12081;48.614;10.226;2023-04-25T03:07:19;4.10;;;2.60;;
23800;SDS011;12081;48.614;10.226;2023-04-25T03:10:04;5.70;;;3.07;;
23800;SDS011;12081;48.614;10.226;2023-04-25T03:12:51;3.37;;;2.70;;
23800;SDS011;12081;48.614;10.226;2023-04-25T03:15:36;5.43;;;2.63;;
23800;SDS011;12081;48.614;10.226;2023-04-25T03:18:20;6.80;;;2.67;;
23800;SDS011;12081;48.614;10.226;2023-04-25T03:21:04;3.00;;;2.73;;
23800;SDS011;12081;48.614;10.226;2023-04-25T03:23:48;3.83;;;2.87;;
23800;SDS011;12081;48.614;10.226;2023-04-25T03:26:33;3.67;;;3.03;;
23800;SDS011;12081;48.614;10.226;2023-04-25T03:29:17;8.87;;;2.87;;
23800;SDS011;12081;48.614;10.226;2023-04-25T03:32:01;5.73;;;2.47;;
23800;SDS011;12081;48.614;10.226;2023-04-25T03:34:45;3.07;;;2.60;;
23800;SDS011;12081;48.614;10.226;2023-04-25T03:37:29;5.33;;;2.97;;
23800;SDS011;12081;48.614;10.226;2023-04-25T03:40:13;4.43;;;3.10;;
23800;SDS011;12081;48.614;10.226;2023-04-25T03:42:58;3.43;;;2.77;;
23800;SDS011;12081;48.614;10.226;2023-04-25T03:45:42;3.27;;;2.63;;
23800;SDS011;12081;48.614;10.226;2023-04-25T03:48:26;4.77;;;2.80;;
23800;SDS011;12081;48.614;10.226;2023-04-25T03:51:11;5.03;;;2.80;;
23800;SDS011;12081;48.614;10.226;2023-04-25T03:53:55;4.10;;;3.10;;
23800;SDS011;12081;48.614;10.226;2023-04-25T03:56:40;4.10;;;2.90;;
23800;SDS011;12081;48.614;10.226;2023-04-25T03:59:24;4.30;;;2.80;;
23800;SDS011;12081;48.614;10.226;2023-04-25T04:02:09;6.27;;;3.30;;
23800;SDS011;12081;48.614;10.226;2023-04-25T04:04:53;4.73;;;2.57;;
23800;SDS011;12081;48.614;10.226;2023-04-25T04:07:39;5.87;;;3.73;;
23800;SDS011;12081;48.614;10.226;2023-04-25T04:10:25;3.87;;;3.10;;
23800;SDS011;12081;48.614;10.226;2023-04-25T04:13:09;9.27;;;3.33;;
23800;SDS011;12081;48.614;10.226;2023-04-25T04:15:54;4.33;;;2.93;;
23800;SDS011;12081;48.614;10.226;2023-04-25T04:18:39;5.57;;;3.10;;
23800;SDS011;12081;48.614;10.226;2023-04-25T04:21:23;5.70;;;3.17;;
23800;SDS011;12081;48.614;10.226;2023-04-25T04:24:07;4.63;;;3.00;;
23800;SDS011;12081;48.614;10.226;2023-04-25T04:26:51;5.87;;;3.23;;
23800;SDS011;12081;48.614;10.226;2023-04-25T04:29:35;5.60;;;2.90;;
23800;SDS011;12081;48.614;10.226;2023-04-25T04:32:20;6.30;;;3.03;;
23800;SDS011;12081;48.614;10.226;2023-04-25T04:35:04;5.17;;;3.27;;
23800;SDS011;12081;48.614;10.226;2023-04-25T04:37:49;4.80;;;2.93;;
23800;SDS011;12081;48.614;10.226;2023-04-25T04:40:34;5.03;;;3.50;;
23800;SDS011;12081;48.614;10.226;2023-04-25T04:43:18;5.93;;;3.33;;
23800;SDS011;12081;48.614;10.226;2023-04-25T04:46:02;5.60;;;3.80;;
23800;SDS011;12081;48.614;10.226;2023-04-25T04:48:47;6.40;;;3.90;;
23800;SDS011;12081;48.614;10.226;2023-04-25T04:51:31;6.60;;;4.00;;
23800;SDS011;12081;48.614;10.226;2023-04-25T04:54:16;5.87;;;3.93;;
23800;SDS011;12081;48.614;10.226;2023-04-25T04:57:00;7.60;;;4.37;;
23800;SDS011;12081;48.614;10.226;2023-04-25T04:59:44;6.90;;;3.93;;
23800;SDS011;12081;48.614;10.226;2023-04-25T05:02:28;6.20;;;4.00;;
23800;SDS011;12081;48.614;10.226;2023-04-25T05:05:12;6.80;;;3.90;;
23800;SDS011;12081;48.614;10.226;2023-04-25T05:07:56;5.57;;;3.37;;
23800;SDS011;12081;48.614;10.226;2023-04-25T05:10:40;4.13;;;3.67;;
23800;SDS011;12081;48.614;10.226;2023-04-25T05:13:25;5.27;;;3.80;;
23800;SDS011;12081;48.614;10.226;2023-04-25T05:16:09;6.57;;;4.20;;
23800;SDS011;12081;48.614;10.226;2023-04-25T05:18:53;6.73;;;3.77;;
23800;SDS011;12081;48.614;10.226;2023-04-25T05:21:38;6.80;;;4.10;;
23800;SDS011;12081;48.614;10.226;2023-04-25T05:24:22;5.20;;;3.97;;
23800;SDS011;12081;48.614;10.226;2023-04-25T05:27:06;5.90;;;3.80;;
23800;SDS011;12081;48.614;10.226;2023-04-25T05:29:51;4.90;;;3.83;;
23800;SDS011;12081;48.614;10.226;2023-04-25T05:32:36;13.60;;;5.27;;
23800;SDS011;12081;48.614;10.226;2023-04-25T05:35:20;5.20;;;4.33;;
23800;SDS011;12081;48.614;10.226;2023-04-25T05:38:04;5.83;;;4.23;;
23800;SDS011;12081;48.614;10.226;2023-04-25T05:40:49;9.33;;;4.27;;
23800;SDS011;12081;48.614;10.226;2023-04-25T05:43:33;5.23;;;3.73;;
23800;SDS011;12081;48.614;10.226;2023-04-25T05:46:20;5.30;;;3.80;;
23800;SDS011;12081;48.614;10.226;2023-04-25T05:49:04;5.73;;;3.90;;
23800;SDS011;12081;48.614;10.226;2023-04-25T05:51:49;5.10;;;3.50;;
23800;SDS011;12081;48.614;10.226;2023-04-25T05:54:33;6.13;;;4.27;;
23800;SDS011;12081;48.614;10.226;2023-04-25T05:57:21;5.13;;;3.77;;
23800;SDS011;12081;48.614;10.226;2023-04-25T06:00:07;6.47;;;3.77;;
23800;SDS011;12081;48.614;10.226;2023-04-25T06:02:59;7.10;;;3.93;;
23800;SDS011;12081;48.614;10.226;2023-04-25T06:05:43;7.77;;;4.33;;
23800;SDS011;12081;48.614;10.226;2023-04-25T06:08:27;6.63;;;3.80;;
23800;SDS011;12081;48.614;10.226;2023-04-25T06:11:11;5.23;;;3.53;;
23800;SDS011;12081;48.614;10.226;2023-04-25T06:13:56;6.33;;;3.30;;
23800;SDS011;12081;48.614;10.226;2023-04-25T06:16:40;5.40;;;3.40;;
23800;SDS011;12081;48.614;10.226;2023-04-25T06:19:24;3.50;;;2.70;;
23800;SDS011;12081;48.614;10.226;2023-04-25T06:22:08;4.83;;;2.73;;
23800;SDS011;12081;48.614;10.226;2023-04-25T06:24:52;6.40;;;2.60;;
23800;SDS011;12081;48.614;10.226;2023-04-25T06:27:36;3.00;;;2.67;;
23800;SDS011;12081;48.614;10.226;2023-04-25T06:30:20;3.63;;;2.90;;
23800;SDS011;12081;48.614;10.226;2023-04-25T06:33:08;4.03;;;3.13;;
23800;SDS011;12081;48.614;10.226;2023-04-25T06:35:52;7.50;;;3.10;;
23800;SDS011;12081;48.614;10.226;2023-04-25T06:38:36;6.50;;;2.60;;
23800;SDS011;12081;48.614;10.226;2023-04-25T06:41:20;3.50;;;2.70;;
23800;SDS011;12081;48.614;10.226;2023-04-25T06:44:04;6.80;;;2.70;;
23800;SDS011;12081;48.614;10.226;2023-04-25T06:49:58;3.27;;;2.07;;
23800;SDS011;12081;48.614;10.226;2023-04-25T06:52:42;6.50;;;2.53;;
23800;SDS011;12081;48.614;10.226;2023-04-25T06:55:26;3.70;;;2.60;;
23800;SDS011;12081;48.614;10.226;2023-04-25T06:58:11;4.97;;;2.20;;
23800;SDS011;12081;48.614;10.226;2023-04-25T07:00:55;4.23;;;1.87;;
23800;SDS011;12081;48.614;10.226;2023-04-25T07:03:39;3.80;;;2.33;;
23800;SDS011;12081;48.614;10.226;2023-04-25T07:06:23;4.30;;;2.73;;
23800;SDS011;12081;48.614;10.226;2023-04-25T07:09:18;4.60;;;1.97;;
23800;SDS011;12081;48.614;10.226;2023-04-25T07:12:03;3.73;;;2.43;;
23800;SDS011;12081;48.614;10.226;2023-04-25T07:14:48;3.17;;;2.00;;
23800;SDS011;12081;48.614;10.226;2023-04-25T07:17:32;3.13;;;2.00;;
23800;SDS011;12081;48.614;10.226;2023-04-25T07:20:17;6.50;;;2.20;;
23800;SDS011;12081;48.614;10.226;2023-04-25T07:23:01;3.50;;;1.80;;
23800;SDS011;12081;48.614;10.226;2023-04-25T07:25:45;4.97;;;2.00;;
23800;SDS011;12081;48.614;10.226;2023-04-25T07:28:29;3.00;;;2.07;;
23800;SDS011;12081;48.614;10.226;2023-04-25T07:31:14;3.27;;;1.83;;
23800;SDS011;12081;48.614;10.226;2023-04-25T07:34:01;3.03;;;2.10;;
23800;SDS011;12081;48.614;10.226;2023-04-25T07:36:45;4.00;;;2.53;;
23800;SDS011;12081;48.614;10.226;2023-04-25T07:39:29;3.13;;;2.07;;
23800;SDS011;12081;48.614;10.226;2023-04-25T07:42:14;3.20;;;2.13;;
23800;SDS011;12081;48.614;10.226;2023-04-25T07:44:58;3.93;;;2.17;;
23800;SDS011;12081;48.614;10.226;2023-04-25T07:47:44;2.77;;;2.10;;
23800;SDS011;12081;48.614;10.226;2023-04-25T07:50:28;3.80;;;2.10;;
23800;SDS011;12081;48.614;10.226;2023-04-25T07:53:13;2.30;;;2.10;;
23800;SDS011;12081;48.614;10.226;2023-04-25T07:55:57;3.00;;;1.93;;
23800;SDS011;12081;48.614;10.226;2023-04-25T07:58:41;4.80;;;2.30;;
23800;SDS011;12081;48.614;10.226;2023-04-25T08:01:25;3.50;;;2.80;;
23800;SDS011;12081;48.614;10.226;2023-04-25T08:04:10;4.60;;;2.43;;
23800;SDS011;12081;48.614;10.226;2023-04-25T08:06:55;3.80;;;2.33;;
23800;SDS011;12081;48.614;10.226;2023-04-25T08:09:39;3.70;;;2.33;;
23800;SDS011;12081;48.614;10.226;2023-04-25T08:12:23;2.33;;;2.07;;
23800;SDS011;12081;48.614;10.226;2023-04-25T08:15:07;3.23;;;2.23;;
23800;SDS011;12081;48.614;10.226;2023-04-25T08:17:52;4.63;;;2.70;;
23800;SDS011;12081;48.614;10.226;2023-04-25T08:20:52;4.97;;;2.90;;
23800;SDS011;12081;48.614;10.226;2023-04-25T08:23:36;2.77;;;2.37;;
23800;SDS011;12081;48.614;10.226;2023-04-25T08:26:20;3.17;;;1.83;;
23800;SDS011;12081;48.614;10.226;2023-04-25T08:29:04;2.63;;;1.83;;
23800;SDS011;12081;48.614;10.226;2023-04-25T08:31:49;2.67;;;1.80;;
23800;SDS011;12081;48.614;10.226;2023-04-25T08:34:34;2.77;;;1.93;;
23800;SDS011;12081;48.614;10.226;2023-04-25T08:37:20;2.80;;;2.20;;
23800;SDS011;12081;48.614;10.226;2023-04-25T08:40:05;3.67;;;2.03;;
23800;SDS011;12081;48.614;10.226;2023-04-25T08:42:53;6.40;;;4.53;;
23800;SDS011;12081;48.614;10.226;2023-04-25T08:45:41;6.03;;;3.47;;
23800;SDS011;12081;48.614;10.226;2023-04-25T08:48:29;4.00;;;2.80;;
23800;SDS011;12081;48.614;10.226;2023-04-25T08:51:23;6.60;;;2.60;;
23800;SDS011;12081;48.614;10.226;2023-04-25T08:54:09;5.00;;;2.27;;
23800;SDS011;12081;48.614;10.226;2023-04-25T08:56:55;2.47;;;1.97;;
23800;SDS011;12081;48.614;10.226;2023-04-25T08:59:41;4.43;;;2.20;;
23800;SDS011;12081;48.614;10.226;2023-04-25T09:02:29;2.50;;;2.30;;
23800;SDS011;12081;48.614;10.226;2023-04-25T09:05:13;5.33;;;2.37;;
23800;SDS011;12081;48.614;10.226;2023-04-25T09:07:58;5.87;;;2.33;;
23800;SDS011;12081;48.614;10.226;2023-04-25T09:10:42;2.33;;;1.97;;
23800;SDS011;12081;48.614;10.226;2023-04-25T09:13:27;4.00;;;2.53;;
23800;SDS011;12081;48.614;10.226;2023-04-25T09:16:12;4.20;;;2.10;;
23800;SDS011;12081;48.614;10.226;2023-04-25T09:19:00;3.50;;;2.40;;
23800;SDS011;12081;48.614;10.226;2023-04-25T09:21:47;2.00;;;1.80;;
23800;SDS011;12081;48.614;10.226;2023-04-25T09:24:37;3.73;;;2.20;;
23800;SDS011;12081;48.614;10.226;2023-04-25T09:27:26;2.93;;;2.30;;
23800;SDS011;12081;48.614;10.226;2023-04-25T09:30:10;3.30;;;2.37;;
23800;SDS011;12081;48.614;10.226;2023-04-25T09:33:03;7.83;;;3.13;;
23800;SDS011;12081;48.614;10.226;2023-04-25T09:35:51;5.77;;;2.63;;
23800;SDS011;12081;48.614;10.226;2023-04-25T09:38:42;3.03;;;2.50;;
23800;SDS011;12081;48.614;10.226;2023-04-25T09:41:27;4.63;;;2.60;;
23800;SDS011;12081;48.614;10.226;2023-04-25T09:44:12;2.80;;;2.33;;
23800;SDS011;12081;48.614;10.226;2023-04-25T09:46:56;2.80;;;2.03;;
23800;SDS011;12081;48.614;10.226;2023-04-25T09:49:42;3.53;;;2.23;;
23800;SDS011;12081;48.614;10.226;2023-04-25T09:52:27;3.70;;;2.80;;
23800;SDS011;12081;48.614;10.226;2023-04-25T09:55:11;2.20;;;2.00;;
23800;SDS011;12081;48.614;10.226;2023-04-25T09:57:55;3.67;;;2.70;;
23800;SDS011;12081;48.614;10.226;2023-04-25T10:00:41;3.70;;;2.40;;
23800;SDS011;12081;48.614;10.226;2023-04-25T10:03:25;4.63;;;2.67;;
23800;SDS011;12081;48.614;10.226;2023-04-25T10:06:12;5.67;;;3.07;;
23800;SDS011;12081;48.614;10.226;2023-04-25T10:08:58;3.67;;;3.10;;
23800;SDS011;12081;48.614;10.226;2023-04-25T10:11:43;2.30;;;2.10;;
23800;SDS011;12081;48.614;10.226;2023-04-25T10:14:30;2.13;;;1.70;;
23800;SDS011;12081;48.614;10.226;2023-04-25T10:17:15;2.03;;;1.83;;
23800;SDS011;12081;48.614;10.226;2023-04-25T10:20:01;2.60;;;2.40;;
23800;SDS011;12081;48.614;10.226;2023-04-25T10:22:49;4.03;;;2.47;;
23800;SDS011;12081;48.614;10.226;2023-04-25T10:25:40;1.97;;;1.53;;
23800;SDS011;12081;48.614;10.226;2023-04-25T10:28:25;2.20;;;1.97;;
23800;SDS011;12081;48.614;10.226;2023-04-25T10:31:09;2.63;;;2.20;;
23800;SDS011;12081;48.614;10.226;2023-04-25T10:33:53;2.63;;;2.30;;
23800;SDS011;12081;48.614;10.226;2023-04-25T10:36:38;2.73;;;2.00;;
23800;SDS011;12081;48.614;10.226;2023-04-25T10:39:23;2.73;;;2.47;;
23800;SDS011;12081;48.614;10.226;2023-04-25T10:42:08;2.50;;;2.30;;
23800;SDS011;12081;48.614;10.226;2023-04-25T10:45:03;3.43;;;2.73;;
23800;SDS011;12081;48.614;10.226;2023-04-25T10:47:49;2.53;;;2.33;;
23800;SDS011;12081;48.614;10.226;2023-04-25T10:50:39;2.80;;;2.60;;
23800;SDS011;12081;48.614;10.226;2023-04-25T10:53:24;4.47;;;2.70;;
23800;SDS011;12081;48.614;10.226;2023-04-25T10:56:10;2.67;;;2.47;;
23800;SDS011;12081;48.614;10.226;2023-04-25T10:59:08;5.27;;;2.90;;
23800;SDS011;12081;48.614;10.226;2023-04-25T11:01:59;3.63;;;2.70;;
23800;SDS011;12081;48.614;10.226;2023-04-25T11:04:55;3.53;;;3.20;;
23800;SDS011;12081;48.614;10.226;2023-04-25T11:07:49;2.93;;;2.70;;
23800;SDS011;12081;48.614;10.226;2023-04-25T11:10:35;2.90;;;2.20;;
23800;SDS011;12081;48.614;10.226;2023-04-25T11:13:22;2.93;;;2.40;;
23800;SDS011;12081;48.614;10.226;2023-04-25T11:16:14;2.97;;;2.30;;
23800;SDS011;12081;48.614;10.226;2023-04-25T11:18:59;1.67;;;1.57;;
23800;SDS011;12081;48.614;10.226;2023-04-25T11:21:43;1.63;;;1.50;;
23800;SDS011;12081;48.614;10.226;2023-04-25T11:24:32;2.00;;;1.50;;
23800;SDS011;12081;48.614;10.226;2023-04-25T11:27:20;1.93;;;1.20;;
23800;SDS011;12081;48.614;10.226;2023-04-25T11:30:12;1.03;;;0.93;;
23800;SDS011;12081;48.614;10.226;2023-04-25T11:32:59;1.10;;;0.90;;
23800;SDS011;12081;48.614;10.226;2023-04-25T11:35:43;1.63;;;0.93;;
23800;SDS011;12081;48.614;10.226;2023-04-25T11:38:27;1.97;;;0.70;;
23800;SDS011;12081;48.614;10.226;2023-04-25T11:41:12;1.20;;;1.03;;
23800;SDS011;12081;48.614;10.226;2023-04-25T11:43:56;3.63;;;1.03;;
23800;SDS011;12081;48.614;10.226;2023-04-25T11:46:40;1.53;;;1.00;;
23800;SDS011;12081;48.614;10.226;2023-04-25T11:49:29;0.93;;;0.90;;
23800;SDS011;12081;48.614;10.226;2023-04-25T11:52:14;1.07;;;0.97;;
23800;SDS011;12081;48.614;10.226;2023-04-25T11:54:59;1.50;;;0.67;;
23800;SDS011;12081;48.614;10.226;2023-04-25T11:57:44;0.80;;;0.70;;
23800;SDS011;12081;48.614;10.226;2023-04-25T12:00:30;0.97;;;0.80;;
23800;SDS011;12081;48.614;10.226;2023-04-25T12:03:14;0.70;;;0.70;;
23800;SDS011;12081;48.614;10.226;2023-04-25T12:06:02;1.53;;;1.00;;
23800;SDS011;12081;48.614;10.226;2023-04-25T12:09:02;1.67;;;0.90;;
23800;SDS011;12081;48.614;10.226;2023-04-25T12:11:48;2.70;;;1.30;;
23800;SDS011;12081;48.614;10.226;2023-04-25T12:14:37;1.70;;;1.37;;
23800;SDS011;12081;48.614;10.226;2023-04-25T12:17:21;4.17;;;2.30;;
23800;SDS011;12081;48.614;10.226;2023-04-25T12:20:07;3.37;;;2.50;;
23800;SDS011;12081;48.614;10.226;2023-04-25T12:22:52;3.90;;;3.13;;
23800;SDS011;12081;48.614;10.226;2023-04-25T12:25:41;3.63;;;3.10;;
23800;SDS011;12081;48.614;10.226;2023-04-25T12:28:27;4.47;;;3.47;;
23800;SDS011;12081;48.614;10.226;2023-04-25T12:31:11;3.40;;;3.10;;
23800;SDS011;12081;48.614;10.226;2023-04-25T12:33:58;2.83;;;2.50;;
23800;SDS011;12081;48.614;10.226;2023-04-25T12:36:42;2.60;;;1.53;;
23800;SDS011;12081;48.614;10.226;2023-04-25T12:39:26;1.43;;;1.30;;
23800;SDS011;12081;48.614;10.226;2023-04-25T12:42:11;0.83;;;0.77;;
23800;SDS011;12081;48.614;10.226;2023-04-25T12:44:55;1.90;;;0.83;;
23800;SDS011;12081;48.614;10.226;2023-04-25T12:47:39;1.47;;;0.70;;
23800;SDS011;12081;48.614;10.226;2023-04-25T12:50:23;0.60;;;0.50;;
23800;SDS011;12081;48.614;10.226;2023-04-25T12:53:08;1.03;;;0.70;;
23800;SDS011;12081;48.614;10.226;2023-04-25T12:55:53;3.13;;;0.80;;
23800;SDS011;12081;48.614;10.226;2023-04-25T12:58:37;0.90;;;0.70;;
23800;SDS011;12081;48.614;10.226;2023-04-25T13:01:22;1.00;;;0.67;;
23800;SDS011;12081;48.614;10.226;2023-04-25T13:04:06;0.70;;;0.50;;
23800;SDS011;12081;48.614;10.226;2023-04-25T13:06:51;1.03;;;0.70;;
23800;SDS011;12081;48.614;10.226;2023-04-25T13:09:35;0.83;;;0.50;;
23800;SDS011;12081;48.614;10.226;2023-04-25T13:12:20;0.80;;;0.70;;
23800;SDS011;12081;48.614;10.226;2023-04-25T13:15:05;1.27;;;0.80;;
23800;SDS011;12081;48.614;10.226;2023-04-25T13:17:50;0.93;;;0.80;;
23800;SDS011;12081;48.614;10.226;2023-04-25T13:20:35;1.33;;;1.03;;
23800;SDS011;12081;48.614;10.226;2023-04-25T13:23:20;1.37;;;1.17;;
23800;SDS011;12081;48.614;10.226;2023-04-25T13:26:04;1.63;;;1.43;;
23800;SDS011;12081;48.614;10.226;2023-04-25T13:28:48;1.90;;;1.60;;
23800;SDS011;12081;48.614;10.226;2023-04-25T13:31:33;2.00;;;1.73;;
23800;SDS011;12081;48.614;10.226;2023-04-25T13:34:18;2.50;;;1.80;;
23800;SDS011;12081;48.614;10.226;2023-04-25T13:37:02;3.13;;;2.40;;
23800;SDS011;12081;48.614;10.226;2023-04-25T13:39:47;2.93;;;1.93;;
23800;SDS011;12081;48.614;10.226;2023-04-25T13:42:31;3.53;;;2.23;;
23800;SDS011;12081;48.614;10.226;2023-04-25T13:45:15;2.07;;;1.70;;
23800;SDS011;12081;48.614;10.226;2023-04-25T13:48:00;2.40;;;1.87;;
23800;SDS011;12081;48.614;10.226;2023-04-25T13:50:44;2.10;;;1.63;;
23800;SDS011;12081;48.614;10.226;2023-04-25T13:53:29;3.10;;;1.63;;
23800;SDS011;12081;48.614;10.226;2023-04-25T13:56:13;1.90;;;1.70;;
23800;SDS011;12081;48.614;10.226;2023-04-25T13:58:58;2.37;;;2.17;;
23800;SDS011;12081;48.614;10.226;2023-04-25T14:01:42;2.03;;;1.93;;
23800;SDS011;12081;48.614;10.226;2023-04-25T14:04:26;2.43;;;1.60;;
23800;SDS011;12081;48.614;10.226;2023-04-25T14:07:10;3.20;;;1.97;;
23800;SDS011;12081;48.614;10.226;2023-04-25T14:09:55;2.13;;;1.93;;
23800;SDS011;12081;48.614;10.226;2023-04-25T14:12:43;2.80;;;2.40;;
23800;SDS011;12081;48.614;10.226;2023-04-25T14:15:28;3.83;;;3.03;;
23800;SDS011;12081;48.614;10.226;2023-04-25T14:18:14;7.40;;;4.40;;
23800;SDS011;12081;48.614;10.226;2023-04-25T14:20:58;2.90;;;2.30;;
23800;SDS011;12081;48.614;10.226;2023-04-25T14:23:43;3.13;;;2.83;;
23800;SDS011;12081;48.614;10.226;2023-04-25T14:26:28;2.83;;;2.07;;
23800;SDS011;12081;48.614;10.226;2023-04-25T14:29:13;3.67;;;2.40;;
23800;SDS011;12081;48.614;10.226;2023-04-25T14:31:57;3.97;;;2.10;;
23800;SDS011;12081;48.614;10.226;2023-04-25T14:34:43;3.47;;;2.33;;
23800;SDS011;12081;48.614;10.226;2023-04-25T14:37:27;2.67;;;2.40;;
23800;SDS011;12081;48.614;10.226;2023-04-25T14:40:12;3.20;;;2.10;;
23800;SDS011;12081;48.614;10.226;2023-04-25T14:42:58;3.43;;;2.20;;
23800;SDS011;12081;48.614;10.226;2023-04-25T14:45:43;2.90;;;2.27;;
23800;SDS011;12081;48.614;10.226;2023-04-25T14:48:28;2.47;;;2.27;;
23800;SDS011;12081;48.614;10.226;2023-04-25T14:51:13;3.07;;;2.23;;
23800;SDS011;12081;48.614;10.226;2023-04-25T14:53:57;3.73;;;2.27;;
23800;SDS011;12081;48.614;10.226;2023-04-25T14:56:42;5.07;;;2.83;;
23800;SDS011;12081;48.614;10.226;2023-04-25T14:59:26;2.20;;;2.00;;
23800;SDS011;12081;48.614;10.226;2023-04-25T15:02:11;5.53;;;2.30;;
23800;SDS011;12081;48.614;10.226;2023-04-25T15:04:56;3.40;;;2.60;;
23800;SDS011;12081;48.614;10.226;2023-04-25T15:07:40;3.37;;;2.77;;
23800;SDS011;12081;48.614;10.226;2023-04-25T15:10:25;4.50;;;2.30;;
23800;SDS011;12081;48.614;10.226;2023-04-25T15:13:09;4.03;;;1.60;;
23800;SDS011;12081;48.614;10.226;2023-04-25T15:15:54;2.73;;;1.97;;
23800;SDS011;12081;48.614;10.226;2023-04-25T15:18:39;3.20;;;1.80;;
23800;SDS011;12081;48.614;10.226;2023-04-25T15:21:23;3.33;;;2.83;;
23800;SDS011;12081;48.614;10.226;2023-04-25T15:24:07;2.20;;;2.00;;
23800;SDS011;12081;48.614;10.226;2023-04-25T15:26:51;2.33;;;1.87;;
23800;SDS011;12081;48.614;10.226;2023-04-25T15:29:35;3.23;;;2.27;;
23800;SDS011;12081;48.614;10.226;2023-04-25T15:32:20;2.90;;;1.80;;
23800;SDS011;12081;48.614;10.226;2023-04-25T15:35:06;3.87;;;2.60;;
23800;SDS011;12081;48.614;10.226;2023-04-25T15:37:51;2.70;;;2.17;;
23800;SDS011;12081;48.614;10.226;2023-04-25T15:40:35;2.43;;;2.23;;
23800;SDS011;12081;48.614;10.226;2023-04-25T15:43:20;2.63;;;2.33;;
23800;SDS011;12081;48.614;10.226;2023-04-25T15:46:04;2.83;;;2.30;;
23800;SDS011;12081;48.614;10.226;2023-04-25T15:48:49;3.03;;;2.53;;
23800;SDS011;12081;48.614;10.226;2023-04-25T15:51:33;2.23;;;2.00;;
23800;SDS011;12081;48.614;10.226;2023-04-25T15:54:18;3.23;;;2.30;;
23800;SDS011;12081;48.614;10.226;2023-04-25T15:57:02;3.13;;;2.00;;
23800;SDS011;12081;48.614;10.226;2023-04-25T15:59:47;3.57;;;2.83;;
23800;SDS011;12081;48.614;10.226;2023-04-25T16:02:32;2.43;;;1.93;;
23800;SDS011;12081;48.614;10.226;2023-04-25T16:05:17;2.40;;;1.90;;
23800;SDS011;12081;48.614;10.226;2023-04-25T16:08:01;2.33;;;1.97;;
23800;SDS011;12081;48.614;10.226;2023-04-25T16:10:47;2.10;;;1.70;;
23800;SDS011;12081;48.614;10.226;2023-04-25T16:13:31;3.93;;;2.10;;
23800;SDS011;12081;48.614;10.226;2023-04-25T16:16:17;2.30;;;1.70;;
23800;SDS011;12081;48.614;10.226;2023-04-25T16:19:02;2.03;;;0.80;;
23800;SDS011;12081;48.614;10.226;2023-04-25T16:21:46;1.60;;;1.30;;
23800;SDS011;12081;48.614;10.226;2023-04-25T16:24:30;3.37;;;1.70;;